createdAt,value
2018-07-04T00:00:05.392Z,26.10
2018-07-04T00:02:47.465Z,26.10
2018-07-04T00:05:29.374Z,26.20
2018-07-04T00:08:11.266Z,26.40
2018-07-04T00:10:53.803Z,26.40
2018-07-04T00:13:35.645Z,26.50
2018-07-04T00:16:17.626Z,26.50
2018-07-04T00:19:00.761Z,26.60
2018-07-04T00:21:43.558Z,26.70
2018-07-04T00:27:01.684Z,26.70
2018-07-04T00:29:43.651Z,26.70
2018-07-04T00:32:25.431Z,26.70
2018-07-04T00:35:08.328Z,26.70
2018-07-04T00:37:50.225Z,26.70
2018-07-04T00:40:32.102Z,26.70
2018-07-04T00:43:14.067Z,26.70
2018-07-04T00:45:56.116Z,26.80
2018-07-04T00:48:37.978Z,26.80
2018-07-04T00:51:19.954Z,26.80
2018-07-04T00:56:37.904Z,26.80
2018-07-04T00:59:19.670Z,26.90
2018-07-04T01:02:01.626Z,26.90
2018-07-04T01:04:43.528Z,26.90
2018-07-04T01:07:25.613Z,26.90
2018-07-04T01:10:07.622Z,26.90
2018-07-04T01:12:49.522Z,26.90
2018-07-04T01:15:31.278Z,27.00
2018-07-04T01:18:13.161Z,27.00
2018-07-04T01:20:59.174Z,27.00
2018-07-04T01:23:41.118Z,27.00
2018-07-04T01:26:23.190Z,27.00
2018-07-04T01:29:05.070Z,27.10
2018-07-04T01:31:46.959Z,27.10
2018-07-04T01:34:28.742Z,27.10
2018-07-04T01:37:10.853Z,27.10
2018-07-04T01:39:52.906Z,27.10
2018-07-04T01:45:10.766Z,27.20
2018-07-04T01:47:52.645Z,27.20
2018-07-04T01:50:35.001Z,27.20
2018-07-04T01:53:17.026Z,27.20
2018-07-04T01:55:59.050Z,27.20
2018-07-04T01:58:40.937Z,27.20
2018-07-04T02:01:22.612Z,27.30
2018-07-04T02:04:04.546Z,27.30
2018-07-04T02:06:46.530Z,27.30
2018-07-04T02:09:28.331Z,27.30
2018-07-04T02:12:11.517Z,27.30
2018-07-04T02:14:53.205Z,27.40
2018-07-04T02:17:35.123Z,27.30
2018-07-04T02:20:17.096Z,27.40
2018-07-04T02:22:58.954Z,27.40
2018-07-04T02:25:40.722Z,27.40
2018-07-04T02:28:23.165Z,27.40
2018-07-04T02:31:05.039Z,27.50
2018-07-04T02:33:47.470Z,27.50
2018-07-04T02:36:29.275Z,27.50
2018-07-04T02:39:11.090Z,27.50
2018-07-04T02:41:53.091Z,27.50
2018-07-04T02:44:35.163Z,27.50
2018-07-04T02:47:21.264Z,27.50
2018-07-04T02:50:03.195Z,27.60
2018-07-04T02:52:44.986Z,27.60
2018-07-04T02:55:26.895Z,27.60
2018-07-04T02:58:09.986Z,27.60
2018-07-04T03:00:52.540Z,27.70
2018-07-04T03:03:34.468Z,27.70
2018-07-04T03:06:16.201Z,27.70
2018-07-04T03:08:58.026Z,27.70
2018-07-04T03:11:39.986Z,27.80
2018-07-04T03:14:21.811Z,27.80
2018-07-04T03:17:03.930Z,27.80
2018-07-04T03:19:45.897Z,27.80
2018-07-04T03:22:27.922Z,27.90
2018-07-04T03:25:10.040Z,27.90
2018-07-04T03:27:51.810Z,27.90
2018-07-04T03:30:33.709Z,27.90
2018-07-04T03:33:15.667Z,28.00
2018-07-04T03:35:57.562Z,28.00
2018-07-04T03:38:39.601Z,28.00
2018-07-04T03:41:21.442Z,28.00
2018-07-04T03:44:04.147Z,28.10
2018-07-04T03:46:45.945Z,28.10
2018-07-04T03:49:27.747Z,28.10
2018-07-04T03:52:09.612Z,28.10
2018-07-04T03:54:52.906Z,28.20
2018-07-04T03:57:34.721Z,28.20
2018-07-04T04:00:16.670Z,28.20
2018-07-04T04:02:58.890Z,28.30
2018-07-04T04:05:41.026Z,28.30
2018-07-04T04:08:23.086Z,28.30
2018-07-04T04:11:04.817Z,28.30
2018-07-04T04:13:48.345Z,28.40
2018-07-04T04:16:30.298Z,28.40
2018-07-04T04:19:12.158Z,28.40
2018-07-04T04:21:54.538Z,28.40
2018-07-04T04:24:36.423Z,28.40
2018-07-04T04:27:18.145Z,28.50
2018-07-04T04:29:59.970Z,28.50
2018-07-04T04:32:41.721Z,28.50
2018-07-04T04:35:23.559Z,28.50
2018-07-04T04:38:06.048Z,28.50
2018-07-04T04:40:47.962Z,28.60
2018-07-04T04:43:29.993Z,28.60
2018-07-04T04:46:11.788Z,28.60
2018-07-04T04:48:53.775Z,28.60
2018-07-04T04:51:35.730Z,28.70
2018-07-04T04:54:17.499Z,28.70
2018-07-04T04:56:59.292Z,28.70
2018-07-04T04:59:41.044Z,28.70
2018-07-04T05:02:23.037Z,28.70
2018-07-04T05:05:05.022Z,28.70
2018-07-04T05:07:47.078Z,28.70
2018-07-04T05:10:29.778Z,28.80
2018-07-04T05:13:11.874Z,28.80
2018-07-04T05:15:53.889Z,28.80
2018-07-04T05:18:35.685Z,28.80
2018-07-04T05:21:18.366Z,28.80
2018-07-04T05:24:00.373Z,28.90
2018-07-04T05:26:42.329Z,28.90
2018-07-04T05:29:24.424Z,28.90
2018-07-04T05:32:06.393Z,28.90
2018-07-04T05:34:48.262Z,28.90
2018-07-04T05:40:06.165Z,29.00
2018-07-04T05:42:48.126Z,29.00
2018-07-04T05:45:30.349Z,29.00
2018-07-04T05:48:12.369Z,29.00
2018-07-04T05:50:54.363Z,29.10
2018-07-04T05:53:36.195Z,29.10
2018-07-04T05:56:18.083Z,29.10
2018-07-04T05:59:00.047Z,29.10
2018-07-04T06:01:42.158Z,29.10
2018-07-04T06:04:24.306Z,29.20
2018-07-04T06:07:06.415Z,29.20
2018-07-04T06:09:48.571Z,29.20
2018-07-04T06:12:30.659Z,29.20
2018-07-04T06:15:12.769Z,29.20
2018-07-04T06:17:54.592Z,29.20
2018-07-04T06:20:36.713Z,29.20
2018-07-04T06:23:18.953Z,29.30
2018-07-04T06:26:01.065Z,29.30
2018-07-04T06:28:43.194Z,29.30
2018-07-04T06:31:25.722Z,29.30
2018-07-04T06:34:07.594Z,29.30
2018-07-04T06:36:49.634Z,29.30
2018-07-04T06:39:19.511Z,29.40
2018-07-04T06:41:49.389Z,29.30
2018-07-04T06:44:19.231Z,29.30
2018-07-04T06:46:49.178Z,29.40
2018-07-04T06:49:19.125Z,29.40
2018-07-04T06:51:49.289Z,29.40
2018-07-04T06:54:19.197Z,29.40
2018-07-04T06:56:49.041Z,29.40
2018-07-04T06:59:18.846Z,29.40
2018-07-04T07:01:48.753Z,29.40
2018-07-04T07:04:30.621Z,29.40
2018-07-04T07:07:12.403Z,29.50
2018-07-04T07:09:54.217Z,29.50
2018-07-04T07:12:36.206Z,29.50
2018-07-04T07:15:17.994Z,29.50
2018-07-04T07:17:59.966Z,29.50
2018-07-04T07:20:41.930Z,29.50
2018-07-04T07:23:24.067Z,29.50
2018-07-04T07:26:07.278Z,29.50
2018-07-04T07:28:49.138Z,29.50
2018-07-04T07:31:30.983Z,29.50
2018-07-04T07:34:13.037Z,29.60
2018-07-04T07:36:54.908Z,29.60
2018-07-04T07:39:36.857Z,29.60
2018-07-04T07:42:18.949Z,29.60
2018-07-04T07:45:00.709Z,29.60
2018-07-04T07:47:42.472Z,29.60
2018-07-04T07:53:00.240Z,29.60
2018-07-04T07:55:42.094Z,29.60
2018-07-04T07:58:24.746Z,29.60
2018-07-04T08:01:06.697Z,29.70
2018-07-04T08:03:48.717Z,29.70
2018-07-04T08:06:30.689Z,29.60
2018-07-04T08:09:12.692Z,29.70
2018-07-04T08:11:54.574Z,29.70
2018-07-04T08:14:36.989Z,29.70
2018-07-04T08:17:18.862Z,29.70
2018-07-04T08:20:00.742Z,29.70
2018-07-04T08:22:42.825Z,29.80
2018-07-04T08:25:24.797Z,29.70
2018-07-04T08:28:06.785Z,29.80
2018-07-04T08:30:48.700Z,29.80
2018-07-04T08:33:30.773Z,29.80
2018-07-04T08:36:12.650Z,29.80
2018-07-04T08:38:54.682Z,29.80
2018-07-04T08:44:12.476Z,29.80
2018-07-04T08:46:54.338Z,29.80
2018-07-04T08:49:36.100Z,29.80
2018-07-04T08:52:18.042Z,29.80
2018-07-04T08:55:00.010Z,29.80
2018-07-04T08:57:42.004Z,29.90
2018-07-04T09:00:24.013Z,29.80
2018-07-04T09:03:06.201Z,29.90
2018-07-04T09:05:48.328Z,29.90
2018-07-04T09:08:30.447Z,29.90
2018-07-04T09:11:12.842Z,29.90
2018-07-04T09:13:55.398Z,29.90
2018-07-04T09:16:37.723Z,29.90
2018-07-04T09:19:19.719Z,29.90
2018-07-04T09:22:01.923Z,29.90
2018-07-04T09:24:43.719Z,29.90
2018-07-04T09:27:25.686Z,29.90
2018-07-04T09:30:07.459Z,29.90
2018-07-04T09:32:49.380Z,29.90
2018-07-04T09:35:31.080Z,29.90
2018-07-04T09:38:13.499Z,30.00
2018-07-04T09:40:55.888Z,30.00
2018-07-04T09:43:38.457Z,29.90
2018-07-04T09:46:20.420Z,30.00
2018-07-04T09:49:02.238Z,30.00
2018-07-04T09:51:44.105Z,30.00
2018-07-04T09:54:26.114Z,30.00
2018-07-04T09:57:07.937Z,30.00
2018-07-04T09:59:49.804Z,30.00
2018-07-04T10:02:31.715Z,30.00
2018-07-04T10:05:13.595Z,30.00
2018-07-04T10:07:55.542Z,30.00
2018-07-04T10:10:37.644Z,30.00
2018-07-04T10:13:19.584Z,30.10
2018-07-04T10:16:02.004Z,30.00
2018-07-04T10:18:43.834Z,30.00
2018-07-04T10:21:25.947Z,30.10
2018-07-04T10:24:07.888Z,30.00
2018-07-04T10:26:49.712Z,30.10
2018-07-04T10:29:31.593Z,30.10
2018-07-04T10:32:13.468Z,30.10
2018-07-04T10:34:55.507Z,30.10
2018-07-04T10:37:37.430Z,30.10
2018-07-04T10:40:19.238Z,30.10
2018-07-04T10:43:01.252Z,30.10
2018-07-04T10:45:43.294Z,30.10
2018-07-04T10:48:25.281Z,30.10
2018-07-04T10:51:07.352Z,30.10
2018-07-04T10:53:49.191Z,30.10
2018-07-04T10:56:31.262Z,30.10
2018-07-04T10:59:13.046Z,30.10
2018-07-04T11:01:54.810Z,30.10
2018-07-04T11:04:36.721Z,29.90
2018-07-04T11:07:18.590Z,29.90
2018-07-04T11:10:00.538Z,29.90
2018-07-04T11:12:42.471Z,29.90
2018-07-04T11:15:24.367Z,29.90
2018-07-04T11:18:06.395Z,30.00
2018-07-04T11:20:48.244Z,30.10
2018-07-04T11:23:30.161Z,30.10
2018-07-04T11:26:12.126Z,30.10
2018-07-04T11:28:54.077Z,30.10
2018-07-04T11:31:35.850Z,30.10
2018-07-04T11:34:17.642Z,30.10
2018-07-04T11:36:59.450Z,30.10
2018-07-04T11:39:41.406Z,30.20
2018-07-04T11:42:23.319Z,30.20
2018-07-04T11:45:05.161Z,30.20
2018-07-04T11:50:05.315Z,30.10
2018-07-04T11:52:35.518Z,30.10
2018-07-04T11:55:05.522Z,30.20
2018-07-04T11:57:35.694Z,30.20
2018-07-04T12:00:05.842Z,30.20
2018-07-04T12:02:36.250Z,30.10
2018-07-04T12:05:18.741Z,30.20
2018-07-04T12:07:49.145Z,30.20
2018-07-04T12:10:19.729Z,30.10
2018-07-04T12:12:50.040Z,30.10
2018-07-04T12:15:20.181Z,30.20
2018-07-04T12:17:50.226Z,30.20
2018-07-04T12:20:20.607Z,30.10
2018-07-04T12:22:50.713Z,30.20
2018-07-04T12:25:20.909Z,30.10
2018-07-04T12:27:51.193Z,30.20
2018-07-04T12:30:21.265Z,30.10
2018-07-04T12:32:51.543Z,30.20
2018-07-04T12:35:23.538Z,30.10
2018-07-04T12:37:53.795Z,30.10
2018-07-04T12:40:24.017Z,30.10
2018-07-04T12:42:54.378Z,30.10
2018-07-04T12:45:24.502Z,30.10
2018-07-04T12:47:55.992Z,30.10
2018-07-04T12:50:30.288Z,30.10
2018-07-04T12:53:00.366Z,30.10
2018-07-04T12:55:44.682Z,30.10
2018-07-04T12:58:26.751Z,30.10
2018-07-04T13:01:08.822Z,30.10
2018-07-04T13:03:50.852Z,30.10
2018-07-04T13:06:32.887Z,30.10
2018-07-04T13:09:14.830Z,30.10
2018-07-04T13:11:56.920Z,30.10
2018-07-04T13:14:39.907Z,30.10
2018-07-04T13:17:21.978Z,30.10
2018-07-04T13:20:03.870Z,30.10
2018-07-04T13:22:45.628Z,30.10
2018-07-04T13:25:27.424Z,30.10
2018-07-04T13:28:10.995Z,30.10
2018-07-04T13:30:52.967Z,30.10
2018-07-04T13:33:34.859Z,30.10
2018-07-04T13:36:17.516Z,30.10
2018-07-04T13:38:59.326Z,30.00
2018-07-04T13:41:41.241Z,30.10
2018-07-04T13:44:23.548Z,30.10
2018-07-04T13:47:06.277Z,30.00
2018-07-04T13:49:49.187Z,30.00
2018-07-04T13:52:31.270Z,30.00
2018-07-04T13:55:13.153Z,30.00
2018-07-04T13:57:55.163Z,30.00
2018-07-04T14:00:36.951Z,30.00
2018-07-04T14:03:18.870Z,30.00
2018-07-04T14:06:00.930Z,30.00
2018-07-04T14:08:44.654Z,30.00
2018-07-04T14:11:30.423Z,30.00
2018-07-04T14:14:15.766Z,29.90
2018-07-04T14:16:58.133Z,30.00
2018-07-04T14:19:40.115Z,30.00
2018-07-04T14:22:21.936Z,30.00
2018-07-04T14:25:03.889Z,30.00
2018-07-04T14:27:46.599Z,29.90
2018-07-04T14:30:28.568Z,29.90
2018-07-04T14:33:11.119Z,29.90
2018-07-04T14:35:53.125Z,29.90
2018-07-04T14:38:34.941Z,29.90
2018-07-04T14:41:17.045Z,29.90
2018-07-04T14:43:59.064Z,29.90
2018-07-04T14:46:41.564Z,29.90
2018-07-04T14:49:23.638Z,29.90
2018-07-04T14:52:05.518Z,29.80
2018-07-04T14:54:47.443Z,29.90
2018-07-04T14:57:30.565Z,29.90
2018-07-04T15:00:12.463Z,29.90
2018-07-04T15:02:55.108Z,29.90
2018-07-04T15:05:37.909Z,29.90
2018-07-04T15:08:21.752Z,29.80
2018-07-04T15:11:04.588Z,29.80
2018-07-04T15:13:47.233Z,29.80
2018-07-04T15:16:29.976Z,29.80
2018-07-04T15:19:11.946Z,29.80
2018-07-04T15:21:53.846Z,29.80
2018-07-04T15:24:35.650Z,29.80
2018-07-04T15:27:18.519Z,29.80
2018-07-04T15:30:00.394Z,29.80
2018-07-04T15:32:42.834Z,29.80
2018-07-04T15:35:24.761Z,29.80
2018-07-04T15:38:06.703Z,29.80
2018-07-04T15:40:48.594Z,29.80
2018-07-04T15:43:30.538Z,29.80
2018-07-04T15:46:12.487Z,29.80
2018-07-04T15:48:54.307Z,29.80
2018-07-04T15:51:37.034Z,29.80
2018-07-04T15:56:58.443Z,29.80
2018-07-04T15:59:40.367Z,29.80
2018-07-04T16:02:22.278Z,29.80
2018-07-04T16:05:04.164Z,29.80
2018-07-04T16:07:46.029Z,29.80
2018-07-04T16:10:27.830Z,29.80
2018-07-04T16:13:09.826Z,29.80
2018-07-04T16:15:51.820Z,29.70
2018-07-04T16:18:33.753Z,29.70
2018-07-04T16:21:16.618Z,29.70
2018-07-04T16:23:58.481Z,29.30
2018-07-04T16:26:40.585Z,28.90
2018-07-04T16:29:23.405Z,28.40
2018-07-04T16:32:05.646Z,28.20
2018-07-04T16:34:47.721Z,28.00
2018-07-04T16:37:29.498Z,27.80
2018-07-04T16:40:11.369Z,27.50
2018-07-04T16:42:53.376Z,27.20
2018-07-04T16:45:35.346Z,27.00
2018-07-04T16:48:17.229Z,26.80
2018-07-04T16:50:59.137Z,26.70
2018-07-04T16:53:41.085Z,26.50
2018-07-04T16:56:23.135Z,26.40
2018-07-04T16:59:04.950Z,26.30
2018-07-04T17:01:47.609Z,26.20
2018-07-04T17:04:29.519Z,26.10
2018-07-04T17:07:11.553Z,26.10
2018-07-04T17:09:53.591Z,26.10
2018-07-04T17:12:35.348Z,26.00
2018-07-04T17:15:17.134Z,26.00
2018-07-04T17:17:59.244Z,26.00
2018-07-04T17:20:41.169Z,26.00
2018-07-04T17:23:23.056Z,26.50
2018-07-04T17:26:05.097Z,26.90
2018-07-04T17:28:47.068Z,27.00
2018-07-04T17:31:28.924Z,26.70
2018-07-04T17:34:11.069Z,26.40
2018-07-04T17:36:53.094Z,26.20
2018-07-04T17:39:34.902Z,26.10
2018-07-04T17:42:16.647Z,25.90
2018-07-04T17:44:58.453Z,26.20
2018-07-04T17:47:40.310Z,26.60
2018-07-04T17:50:22.326Z,26.90
2018-07-04T17:53:04.301Z,26.70
2018-07-04T17:55:46.255Z,26.40
2018-07-04T17:58:29.061Z,26.10
2018-07-04T18:01:11.025Z,25.90
2018-07-04T18:03:53.100Z,25.90
2018-07-04T18:06:35.094Z,26.30
2018-07-04T18:09:16.829Z,26.70
2018-07-04T18:11:58.647Z,26.70
2018-07-04T18:14:40.421Z,26.40
2018-07-04T18:17:22.169Z,26.10
2018-07-04T18:20:04.053Z,26.00
2018-07-04T18:22:46.962Z,26.30
2018-07-04T18:25:28.862Z,26.60
2018-07-04T18:28:10.781Z,26.80
2018-07-04T18:30:52.761Z,26.50
2018-07-04T18:33:34.763Z,26.50
2018-07-04T18:36:16.772Z,26.70
2018-07-04T18:38:58.790Z,26.90
2018-07-04T18:41:40.710Z,26.80
2018-07-04T18:44:22.666Z,26.50
2018-07-04T18:47:04.633Z,26.50
2018-07-04T18:49:46.298Z,26.70
2018-07-04T18:52:28.134Z,26.90
2018-07-04T18:55:10.080Z,26.80
2018-07-04T18:57:51.959Z,26.50
2018-07-04T19:00:34.100Z,26.60
2018-07-04T19:03:15.942Z,26.80
2018-07-04T19:05:57.977Z,27.00
2018-07-04T19:08:39.831Z,26.70
2018-07-04T19:11:22.589Z,26.50
2018-07-04T19:14:04.407Z,26.60
2018-07-04T19:16:46.358Z,26.80
2018-07-04T19:19:29.100Z,26.90
2018-07-04T19:22:12.653Z,26.70
2018-07-04T19:24:54.690Z,26.70
2018-07-04T19:27:36.502Z,26.90
2018-07-04T19:30:18.462Z,26.90
2018-07-04T19:33:00.257Z,26.70
2018-07-04T19:35:42.137Z,26.70
2018-07-04T19:38:24.006Z,26.90
2018-07-04T19:41:05.815Z,27.00
2018-07-04T19:43:48.296Z,26.70
2018-07-04T19:46:30.224Z,26.70
2018-07-04T19:49:12.003Z,26.90
2018-07-04T19:51:53.813Z,27.00
2018-07-04T19:54:35.673Z,26.70
2018-07-04T19:57:17.390Z,26.60
2018-07-04T19:59:59.415Z,26.80
2018-07-04T20:02:41.489Z,26.90
2018-07-04T20:05:23.402Z,26.80
2018-07-04T20:08:05.421Z,26.70
2018-07-04T20:10:47.461Z,26.80
2018-07-04T20:13:29.408Z,26.90
2018-07-04T20:16:11.249Z,26.80
2018-07-04T20:18:53.120Z,26.70
2018-07-04T20:21:35.618Z,26.80
2018-07-04T20:24:17.506Z,26.90
2018-07-04T20:27:00.033Z,26.90
2018-07-04T20:29:41.923Z,26.60
2018-07-04T20:32:23.637Z,26.70
2018-07-04T20:35:05.614Z,26.90
2018-07-04T20:37:47.603Z,26.90
2018-07-04T20:40:30.489Z,26.50
2018-07-04T20:43:12.532Z,26.60
2018-07-04T20:45:54.480Z,26.80
2018-07-04T20:48:36.919Z,26.90
2018-07-04T20:51:18.973Z,26.50
2018-07-04T20:54:00.680Z,26.60
2018-07-04T20:56:42.629Z,26.70
2018-07-04T20:59:24.493Z,26.80
2018-07-04T21:02:06.272Z,26.70
2018-07-04T21:04:48.173Z,26.70
2018-07-04T21:07:30.241Z,26.80
2018-07-04T21:10:12.106Z,26.90
2018-07-04T21:12:53.918Z,26.60
2018-07-04T21:15:35.919Z,26.60
2018-07-04T21:18:17.704Z,26.70
2018-07-04T21:20:59.625Z,26.80
2018-07-04T21:23:41.672Z,26.50
2018-07-04T21:26:23.686Z,26.50
2018-07-04T21:29:05.666Z,26.70
2018-07-04T21:31:47.477Z,26.80
2018-07-04T21:34:30.630Z,26.50
2018-07-04T21:39:48.460Z,26.70
2018-07-04T21:42:30.482Z,26.70
2018-07-04T21:45:13.273Z,26.40
2018-07-04T21:47:55.010Z,26.50
2018-07-04T21:50:36.725Z,26.60
2018-07-04T21:53:18.549Z,26.80
2018-07-04T21:56:00.340Z,26.40
2018-07-04T21:58:42.439Z,26.50
2018-07-04T22:01:24.362Z,26.70
2018-07-04T22:04:06.377Z,26.70
2018-07-04T22:06:48.173Z,26.50
2018-07-04T22:09:30.245Z,26.50
2018-07-04T22:14:48.165Z,26.70
2018-07-04T22:17:30.120Z,26.40
2018-07-04T22:20:12.212Z,26.50
2018-07-04T22:22:54.234Z,26.60
2018-07-04T22:25:36.025Z,26.60
2018-07-04T22:28:17.982Z,26.50
2018-07-04T22:30:59.806Z,26.50
2018-07-04T22:33:41.810Z,26.70
2018-07-04T22:36:23.609Z,26.60
2018-07-04T22:39:06.677Z,26.40
2018-07-04T22:41:48.518Z,26.60
2018-07-04T22:44:30.345Z,26.70
2018-07-04T22:47:12.247Z,26.60
2018-07-04T22:49:54.254Z,26.50
2018-07-04T22:52:36.258Z,26.60
2018-07-04T22:55:18.099Z,26.70
2018-07-04T22:58:00.043Z,26.50
2018-07-04T23:00:42.322Z,26.50
2018-07-04T23:03:24.336Z,26.60
2018-07-04T23:06:06.378Z,26.70
2018-07-04T23:08:48.426Z,26.40
2018-07-04T23:11:30.834Z,26.50
2018-07-04T23:14:13.039Z,26.60
2018-07-04T23:16:55.202Z,26.70
2018-07-04T23:19:37.356Z,26.40
2018-07-04T23:22:19.623Z,26.50
2018-07-04T23:25:01.680Z,26.60
2018-07-04T23:27:44.563Z,26.60
2018-07-04T23:30:26.774Z,26.40
2018-07-04T23:33:09.020Z,26.50
2018-07-04T23:35:51.104Z,26.60
2018-07-04T23:38:33.095Z,26.50
2018-07-04T23:41:15.109Z,26.30
2018-07-04T23:43:57.009Z,26.50
2018-07-04T23:46:38.923Z,26.70
2018-07-04T23:49:20.767Z,26.60
2018-07-04T23:52:02.933Z,26.30
2018-07-04T23:54:45.124Z,26.10
2018-07-04T23:57:27.082Z,26.10
